Time;durP1;ratioP1;P1;durP2;ratioP2;P2;SDS_P1;SDS_P2;PMS_P1;PMS_P2;Temp;Humidity;BMP_temperature;BMP_pressure;BME280_temperature;BME280_humidity;BME280_pressure;Samples;Min_cycle;Max_cycle;Signal;HPM_P1;HPM_P2
2022/01/31 00:01:46;;;;;;;;;;;3.40;91.70;;;2.87;100.00;99573.84;5072690;28;19962;-66
2022/01/31 00:04:11;;;;;;;;;;;3.40;91.80;;;3.04;100.00;99612.28;5058000;28;20366;-67
2022/01/31 00:06:37;;;;;;;;;;;3.40;91.80;;;2.92;100.00;99599.97;5058440;28;19966;-68
2022/01/31 00:09:03;;;;;;;;;;;3.40;91.90;;;2.71;100.00;99601.63;5075733;28;20366;-66
2022/01/31 00:11:29;;;;;;;;;;;3.40;91.90;;;2.60;100.00;99616.47;5058440;28;19920;-66
2022/01/31 00:14:03;;;;;;;;;;;3.30;91.60;;;3.01;100.00;99604.72;5058086;28;19916;-66
2022/01/31 00:16:32;;;;;;;;;;;3.30;91.90;;;2.33;100.00;99510.50;5059575;28;19920;-66
2022/01/31 00:18:59;;;;;;;;;;;3.30;92.00;;;3.10;100.00;99576.34;5075819;28;19925;-66
2022/01/31 00:21:25;;;;;;;;;;;3.40;92.10;;;2.82;100.00;99535.78;5058443;28;19942;-66
2022/01/31 00:23:51;;;;;;;;;;;3.40;92.10;;;3.05;100.00;99575.69;5076073;28;19927;-66
2022/01/31 00:26:17;;;;;;;;;;;3.40;92.20;;;2.93;100.00;99546.41;5041098;28;19927;-67
2022/01/31 00:28:42;;;;;;;;;;;3.40;92.20;;;3.14;100.00;99572.78;5075812;28;19920;-66
2022/01/31 00:31:08;;;;;;;;;;;3.40;92.30;;;3.16;100.00;99573.56;5075706;28;20325;-67
2022/01/31 00:33:34;;;;;;;;;;;3.40;92.40;;;3.13;100.00;99576.22;5057949;28;19927;-66
2022/01/31 00:36:00;;;;;;;;;;;3.40;92.50;;;2.92;100.00;99533.72;5075917;28;20365;-66
2022/01/31 00:38:25;;;;;;;;;;;3.40;92.60;;;3.03;100.00;99560.47;5075421;28;19920;-66
2022/01/31 00:40:51;;;;;;;;;;;3.50;92.60;;;3.06;100.00;99542.50;5057871;28;20385;-67
2022/01/31 00:43:19;;;;;;;;;;;3.40;92.60;;;3.24;100.00;99540.94;5075413;28;19920;-67
2022/01/31 00:45:57;;;;;;;;;;;3.50;92.80;;;3.27;100.00;99520.44;5075714;28;19920;-68
2022/01/31 00:48:25;;;;;;;;;;;3.50;92.90;;;3.30;100.00;99515.19;5075769;28;19920;-66
2022/01/31 00:50:51;;;;;;;;;;;3.60;92.80;;;3.06;100.00;99504.25;5057960;28;19924;-67
2022/01/31 00:53:17;;;;;;;;;;;3.60;92.60;;;2.62;100.00;99447.41;5074916;28;19921;-68
2022/01/31 00:55:42;;;;;;;;;;;3.60;92.50;;;2.96;100.00;99487.69;5057577;28;19927;-66
2022/01/31 00:58:08;;;;;;;;;;;3.60;92.30;;;2.71;100.00;99498.91;5074825;28;19965;-66
2022/01/31 01:00:34;;;;;;;;;;;3.60;92.00;;;3.14;100.00;99488.66;5057368;28;19977;-67
2022/01/31 01:02:59;;;;;;;;;;;3.60;92.20;;;3.19;100.00;99474.03;5075072;28;20358;-66
2022/01/31 01:05:25;;;;;;;;;;;3.60;92.50;;;3.33;100.00;99481.09;5075656;28;19920;-67
2022/01/31 01:07:51;;;;;;;;;;;3.60;92.60;;;3.30;100.00;99476.09;5075198;28;19921;-67
2022/01/31 01:10:17;;;;;;;;;;;3.70;92.80;;;3.40;100.00;99490.16;5057055;28;20733;-66
2022/01/31 01:12:44;;;;;;;;;;;3.70;92.80;;;3.30;100.00;99482.03;5074407;28;20329;-67
2022/01/31 01:15:10;;;;;;;;;;;3.70;92.80;;;3.46;100.00;99473.78;5057007;28;19951;-67
2022/01/31 01:17:36;;;;;;;;;;;3.70;92.90;;;3.43;100.00;99441.56;5057218;28;19955;-67
2022/01/31 01:20:03;;;;;;;;;;;3.80;93.00;;;3.53;100.00;99455.59;5040253;28;20390;-66
2022/01/31 01:22:29;;;;;;;;;;;3.80;93.00;;;3.61;100.00;99447.63;5074812;28;20392;-67
2022/01/31 01:24:54;;;;;;;;;;;3.80;93.00;;;3.35;100.00;99411.31;5075152;28;19920;-67
2022/01/31 01:27:21;;;;;;;;;;;3.90;93.00;;;2.69;100.00;99384.31;5074544;28;19925;-67
2022/01/31 01:29:47;;;;;;;;;;;3.90;92.10;;;3.06;100.00;99426.97;5056420;28;20365;-67
2022/01/31 01:32:13;;;;;;;;;;;3.80;91.80;;;3.39;100.00;99409.44;5074523;28;19920;-67
2022/01/31 01:34:39;;;;;;;;;;;3.80;92.00;;;3.30;100.00;99369.84;5074598;28;19921;-67
2022/01/31 01:37:05;;;;;;;;;;;3.80;92.20;;;3.27;100.00;99372.53;5073995;28;20430;-66
2022/01/31 01:39:31;;;;;;;;;;;3.80;92.20;;;3.21;100.00;99372.00;5074630;28;19931;-67
2022/01/31 01:41:57;;;;;;;;;;;3.80;92.20;;;3.47;100.00;99368.28;5074544;28;19956;-67
2022/01/31 01:45:01;;;;;;;;;;;3.80;92.30;;;3.36;100.00;99331.34;5056350;28;20383;-67
2022/01/31 01:47:27;;;;;;;;;;;3.80;92.40;;;3.13;100.00;99289.91;5012527;28;19925;-67
2022/01/31 01:49:53;;;;;;;;;;;3.70;92.50;;;2.97;100.00;99252.31;5012340;28;19921;-68
2022/01/31 01:52:18;;;;;;;;;;;3.70;92.70;;;3.35;100.00;99304.19;5034560;28;19921;-67
2022/01/31 01:54:48;;;;;;;;;;;3.80;92.90;;;3.35;100.00;99290.63;5073970;28;19943;-67
2022/01/31 01:57:14;;;;;;;;;;;3.80;92.90;;;3.26;100.00;99279.09;5074283;28;19920;-67
2022/01/31 01:59:40;;;;;;;;;;;3.70;92.80;;;3.26;100.00;99265.53;5073832;28;19947;-67
2022/01/31 02:02:07;;;;;;;;;;;3.70;92.80;;;3.31;100.00;99253.41;5073895;28;19920;-67
2022/01/31 02:04:33;;;;;;;;;;;3.70;93.10;;;3.31;100.00;99238.09;5056540;28;19923;-67
2022/01/31 02:06:59;;;;;;;;;;;3.70;93.30;;;3.13;100.00;99191.31;5056242;28;19916;-67
2022/01/31 02:09:27;;;;;;;;;;;3.70;93.40;;;3.42;100.00;99223.16;5074081;28;20009;-67
2022/01/31 02:11:57;;;;;;;;;;;3.70;93.30;;;3.16;100.00;99220.94;5073947;28;19920;-67
2022/01/31 02:14:23;;;;;;;;;;;3.70;93.30;;;2.96;100.00;99145.41;5040211;28;20019;-67
2022/01/31 02:16:50;;;;;;;;;;;3.80;93.30;;;3.40;100.00;99200.25;5073897;28;19920;-67
2022/01/31 02:19:17;;;;;;;;;;;3.80;93.30;;;3.12;100.00;99164.19;5073605;28;19920;-67
2022/01/31 02:21:43;;;;;;;;;;;3.80;92.90;;;3.32;100.00;99179.38;5055986;28;20265;-67
2022/01/31 02:24:09;;;;;;;;;;;3.90;92.90;;;3.43;100.00;99168.69;5073514;28;19943;-67
2022/01/31 02:26:35;;;;;;;;;;;3.90;93.00;;;3.66;100.00;99200.78;5073584;28;20357;-67
2022/01/31 02:29:00;;;;;;;;;;;3.90;93.20;;;3.77;100.00;99194.28;5073601;28;19932;-67
2022/01/31 02:31:26;;;;;;;;;;;4.00;93.30;;;3.87;100.00;99204.06;5055661;28;19925;-67
2022/01/31 02:33:52;;;;;;;;;;;4.10;93.50;;;3.92;100.00;99202.94;5073938;28;20294;-67
2022/01/31 02:36:17;;;;;;;;;;;4.10;93.50;;;3.84;100.00;99189.72;5073525;28;19981;-67
2022/01/31 02:38:43;;;;;;;;;;;4.20;93.50;;;3.67;100.00;99184.56;5073847;28;19943;-67
2022/01/31 02:41:09;;;;;;;;;;;4.20;93.10;;;3.42;100.00;99160.22;5073551;28;19928;-67
2022/01/31 02:43:35;;;;;;;;;;;4.20;92.70;;;3.40;100.00;99154.38;5073766;28;19921;-67
2022/01/31 02:46:00;;;;;;;;;;;4.10;92.30;;;3.22;100.00;99134.81;5055860;28;19928;-67
2022/01/31 02:48:28;;;;;;;;;;;4.00;92.30;;;3.37;100.00;99095.88;5072166;28;20074;-67
2022/01/31 02:50:55;;;;;;;;;;;4.00;92.60;;;3.47;100.00;99082.66;5073661;28;19921;-67
2022/01/31 02:55:50;;;;;;;;;;;4.10;93.20;;;3.48;100.00;99054.53;5073555;28;19927;-67
2022/01/31 02:58:16;;;;;;;;;;;4.10;93.10;;;3.53;100.00;99084.94;5073276;28;20007;-67
2022/01/31 03:00:42;;;;;;;;;;;4.10;92.70;;;3.19;100.00;99025.38;5073718;28;20015;-67
2022/01/31 03:03:07;;;;;;;;;;;4.00;92.40;;;3.37;100.00;99083.13;5073235;28;20014;-67
2022/01/31 03:05:33;;;;;;;;;;;3.90;92.40;;;3.39;100.00;99048.16;5073518;28;20396;-67
2022/01/31 03:07:59;;;;;;;;;;;3.90;92.70;;;3.66;100.00;99063.03;5073421;28;19916;-67
2022/01/31 03:10:25;;;;;;;;;;;3.90;93.10;;;3.45;100.00;99044.50;5072935;28;20381;-67
2022/01/31 03:12:51;;;;;;;;;;;4.00;93.00;;;3.46;100.00;98990.03;5073729;28;19927;-67
2022/01/31 03:15:16;;;;;;;;;;;4.00;92.80;;;3.05;100.00;98964.84;5055641;28;19921;-67
2022/01/31 03:17:46;;;;;;;;;;;3.90;92.70;;;3.29;100.00;99013.84;5038643;28;19916;-67
2022/01/31 03:20:13;;;;;;;;;;;3.80;92.80;;;3.25;100.00;99014.03;5073239;28;19976;-67
2022/01/31 03:22:38;;;;;;;;;;;3.70;93.10;;;3.21;100.00;98995.50;5055706;28;19920;-67
2022/01/31 03:25:04;;;;;;;;;;;3.70;93.50;;;3.18;100.00;98977.84;5073048;28;20308;-67
2022/01/31 03:27:30;;;;;;;;;;;3.60;93.50;;;3.00;100.00;98960.88;5073094;28;20404;-67
2022/01/31 03:29:56;;;;;;;;;;;3.50;93.70;;;2.97;100.00;98951.66;5073149;28;19925;-67
2022/01/31 03:32:22;;;;;;;;;;;3.40;94.10;;;2.83;100.00;98927.75;5038600;28;19927;-67
2022/01/31 03:34:47;;;;;;;;;;;3.20;94.30;;;2.85;100.00;98936.97;5055433;28;19921;-67
2022/01/31 03:37:13;;;;;;;;;;;3.20;94.80;;;2.83;100.00;98943.03;5057640;28;19920;-67
2022/01/31 03:39:39;;;;;;;;;;;3.30;94.90;;;3.00;100.00;98976.16;5076591;28;19977;-67
2022/01/31 03:42:05;;;;;;;;;;;3.20;94.80;;;2.85;100.00;98934.41;5076857;28;19946;-67
2022/01/31 03:44:30;;;;;;;;;;;3.30;94.90;;;3.34;100.00;98973.63;5076545;28;20273;-68
2022/01/31 03:46:57;;;;;;;;;;;3.50;95.20;;;3.54;100.00;98984.56;5076930;28;19920;-67
2022/01/31 03:49:23;;;;;;;;;;;3.60;95.40;;;3.55;100.00;98976.00;5058721;28;20340;-67
2022/01/31 03:51:49;;;;;;;;;;;3.70;95.20;;;3.73;100.00;98987.84;5058795;28;19925;-68
2022/01/31 03:54:14;;;;;;;;;;;3.90;95.10;;;3.86;100.00;98988.06;5076412;28;19973;-67
2022/01/31 03:56:40;;;;;;;;;;;4.00;95.00;;;3.93;100.00;98985.09;5076733;28;20043;-68
2022/01/31 03:59:06;;;;;;;;;;;4.10;94.90;;;3.91;100.00;98961.38;5076462;28;20285;-68
2022/01/31 04:01:31;;;;;;;;;;;4.20;94.90;;;4.04;100.00;98972.59;5076283;28;19921;-65
2022/01/31 04:03:57;;;;;;;;;;;4.20;94.60;;;4.05;100.00;98964.03;5076472;28;19920;-65
2022/01/31 04:06:23;;;;;;;;;;;4.30;94.60;;;4.01;100.00;98956.63;5075877;28;20377;-68
2022/01/31 04:08:50;;;;;;;;;;;4.30;94.50;;;4.10;100.00;98963.81;5076419;28;19927;-68
2022/01/31 04:11:16;;;;;;;;;;;4.40;94.40;;;4.13;100.00;98958.53;5058368;28;19924;-68
2022/01/31 04:13:41;;;;;;;;;;;4.40;94.20;;;4.17;100.00;98957.47;5076306;28;19920;-68
2022/01/31 04:16:07;;;;;;;;;;;4.50;94.50;;;4.14;100.00;98950.78;5058416;28;20378;-68
2022/01/31 04:18:33;;;;;;;;;;;4.50;94.10;;;3.82;100.00;98881.03;5076229;28;19927;-68
2022/01/31 04:20:59;;;;;;;;;;;4.50;94.00;;;3.96;100.00;98903.25;5076255;28;19921;-68
2022/01/31 04:23:27;;;;;;;;;;;4.50;93.90;;;4.05;100.00;98918.09;5075889;28;19921;-68
2022/01/31 04:26:01;;;;;;;;;;;4.50;93.60;;;4.02;100.00;98910.63;5058253;28;19916;-68
2022/01/31 04:28:32;;;;;;;;;;;4.50;93.40;;;4.07;100.00;98900.97;5075856;28;19943;-68
2022/01/31 04:31:13;;;;;;;;;;;4.50;93.40;;;3.67;100.00;98851.22;5075964;28;19928;-68
2022/01/31 04:33:39;;;;;;;;;;;4.50;93.20;;;4.00;100.00;98899.66;5076172;28;19963;-68
2022/01/31 04:36:06;;;;;;;;;;;4.50;93.10;;;4.09;100.00;98885.56;5058087;28;20366;-68
2022/01/31 04:38:32;;;;;;;;;;;4.50;92.90;;;3.71;100.00;98837.41;5075586;28;19920;-68
2022/01/31 04:40:58;;;;;;;;;;;4.50;93.00;;;3.98;100.00;98863.19;5075831;28;19946;-68
2022/01/31 04:43:23;;;;;;;;;;;4.40;93.00;;;3.99;100.00;98844.41;5075569;28;19920;-68
2022/01/31 04:45:50;;;;;;;;;;;4.40;93.20;;;4.04;100.00;98829.66;5075888;28;19924;-68
2022/01/31 04:48:19;;;;;;;;;;;4.40;93.20;;;4.05;100.00;98810.88;5057008;28;19920;-67
2022/01/31 04:50:45;;;;;;;;;;;4.50;93.00;;;3.77;100.00;98741.88;5075628;28;20280;-68
2022/01/31 04:53:11;;;;;;;;;;;4.60;92.80;;;4.23;100.00;98788.63;5040714;28;19965;-60
2022/01/31 04:55:37;;;;;;;;;;;4.60;92.70;;;4.13;100.00;98760.22;5041075;28;19928;-68
2022/01/31 04:58:03;;;;;;;;;;;4.70;92.30;;;4.40;100.00;98774.91;5075531;28;19921;-68
2022/01/31 05:00:29;;;;;;;;;;;4.80;92.10;;;4.60;100.00;98782.28;5075398;28;19924;-68
2022/01/31 05:02:54;;;;;;;;;;;4.90;92.30;;;4.67;100.00;98767.41;5057672;28;19928;-68
2022/01/31 05:05:20;;;;;;;;;;;4.90;92.60;;;4.51;100.00;98707.00;5057362;28;19927;-68
2022/01/31 05:07:46;;;;;;;;;;;5.00;92.90;;;4.82;100.00;98716.22;5075700;28;19920;-68
2022/01/31 05:10:12;;;;;;;;;;;5.10;93.00;;;4.84;100.00;98721.25;5075113;28;19920;-66
2022/01/31 05:12:38;;;;;;;;;;;5.20;92.90;;;4.71;100.00;98669.22;5075134;28;19966;-68
2022/01/31 05:15:04;;;;;;;;;;;5.30;92.70;;;5.01;100.00;98704.91;5075206;28;19921;-68
2022/01/31 05:17:30;;;;;;;;;;;5.30;92.40;;;5.08;100.00;98713.84;5074577;28;20439;-68
2022/01/31 05:19:56;;;;;;;;;;;5.40;92.70;;;4.55;100.00;98630.97;5057134;28;19921;-68
2022/01/31 05:22:21;;;;;;;;;;;5.40;92.50;;;5.10;100.00;98719.69;5074522;28;19973;-68
2022/01/31 05:24:47;;;;;;;;;;;5.40;92.20;;;4.98;100.00;98672.66;5074655;28;19921;-68
2022/01/31 05:27:14;;;;;;;;;;;5.50;92.20;;;5.17;100.00;98697.94;5040129;28;20369;-66
2022/01/31 05:29:39;;;;;;;;;;;5.60;92.10;;;5.28;100.00;98708.31;5074928;28;19970;-68
2022/01/31 05:32:05;;;;;;;;;;;5.60;91.90;;;5.26;100.00;98682.84;5057017;28;20361;-68
2022/01/31 05:34:31;;;;;;;;;;;5.60;91.90;;;5.29;100.00;98672.41;5074143;28;19925;-68
2022/01/31 05:36:57;;;;;;;;;;;5.70;91.90;;;5.33;100.00;98657.72;5074652;28;20025;-68
2022/01/31 05:39:26;;;;;;;;;;;5.70;91.80;;;5.31;100.00;98634.78;5073085;28;19921;-68
2022/01/31 05:41:52;;;;;;;;;;;5.70;91.50;;;5.37;100.00;98620.78;5057088;28;19917;-68
2022/01/31 05:44:18;;;;;;;;;;;5.80;91.60;;;5.35;100.00;98610.66;5074233;28;19925;-68
2022/01/31 05:46:44;;;;;;;;;;;5.80;91.40;;;5.23;100.00;98590.16;5074393;28;20380;-68
2022/01/31 05:49:10;;;;;;;;;;;5.80;91.20;;;5.43;100.00;98625.53;5074656;28;19942;-68
2022/01/31 05:51:45;;;;;;;;;;;5.80;91.10;;;5.38;100.00;98596.84;5073935;28;19927;-68
2022/01/31 05:54:11;;;;;;;;;;;5.90;91.40;;;5.48;100.00;98597.91;5041194;28;19920;-68
2022/01/31 05:56:36;;;;;;;;;;;5.90;91.40;;;5.43;100.00;98597.41;5056046;28;19966;-68
2022/01/31 05:59:02;;;;;;;;;;;5.90;91.50;;;5.46;100.00;98591.25;5073696;28;19927;-68
2022/01/31 06:01:28;;;;;;;;;;;5.90;91.50;;;5.49;100.00;98591.88;5055643;28;19924;-68
2022/01/31 06:03:53;;;;;;;;;;;5.90;91.30;;;5.50;100.00;98593.53;5074105;28;19950;-68
2022/01/31 06:06:19;;;;;;;;;;;5.90;91.20;;;5.51;100.00;98597.72;5073943;28;19921;-66
2022/01/31 06:08:45;;;;;;;;;;;5.90;91.10;;;5.53;100.00;98595.03;5074107;28;19927;-66
2022/01/31 06:11:11;;;;;;;;;;;5.90;91.20;;;5.36;100.00;98547.53;5073837;28;19931;-66
2022/01/31 06:13:36;;;;;;;;;;;6.00;91.30;;;5.58;100.00;98580.25;5073829;28;19920;-67
2022/01/31 06:16:02;;;;;;;;;;;6.00;91.70;;;5.07;100.00;98489.78;5073685;28;20369;-68
2022/01/31 06:18:28;;;;;;;;;;;6.00;91.60;;;5.29;100.00;98515.59;5022797;28;19927;-68
2022/01/31 06:20:54;;;;;;;;;;;6.00;91.70;;;5.58;100.00;98552.91;5056145;28;20395;-68
2022/01/31 06:23:19;;;;;;;;;;;6.00;91.90;;;5.62;100.00;98548.41;5055549;28;20292;-68
2022/01/31 06:25:46;;;;;;;;;;;6.00;91.80;;;5.12;100.00;98490.28;5073761;28;19920;-68
2022/01/31 06:28:12;;;;;;;;;;;6.00;92.00;;;5.58;100.00;98557.22;5073957;28;19920;-68
2022/01/31 06:30:38;;;;;;;;;;;6.00;92.00;;;5.61;100.00;98568.03;5055340;28;19931;-66
2022/01/31 06:33:03;;;;;;;;;;;6.00;92.10;;;5.63;100.00;98568.78;5073811;28;19920;-68
2022/01/31 06:35:29;;;;;;;;;;;6.00;92.60;;;5.63;100.00;98568.78;5038841;28;19920;-69
2022/01/31 06:37:55;;;;;;;;;;;6.00;93.20;;;5.60;100.00;98563.84;5073395;28;19943;-68
2022/01/31 06:40:21;;;;;;;;;;;6.00;94.00;;;5.58;100.00;98567.44;5073436;28;19931;-67
2022/01/31 06:42:46;;;;;;;;;;;6.00;94.70;;;5.23;100.00;98521.13;5073593;28;19974;-67
2022/01/31 06:45:12;;;;;;;;;;;6.00;95.40;;;5.54;100.00;98573.66;5073682;28;19916;-67
2022/01/31 06:47:38;;;;;;;;;;;6.00;95.80;;;5.46;100.00;98581.84;5073386;28;19948;-67
2022/01/31 06:50:06;;;;;;;;;;;5.90;96.00;;;5.49;100.00;98575.72;5072913;28;19939;-68
2022/01/31 06:52:35;;;;;;;;;;;5.90;96.60;;;5.50;100.00;98579.91;5072983;28;20385;-67
2022/01/31 06:55:04;;;;;;;;;;;5.90;97.10;;;5.44;100.00;98586.22;5023088;28;19916;-69
2022/01/31 06:57:33;;;;;;;;;;;5.90;97.40;;;5.42;100.00;98579.59;5055526;28;20305;-67
2022/01/31 07:00:08;;;;;;;;;;;5.90;97.60;;;5.34;100.00;98586.00;5055513;28;19959;-67
2022/01/31 07:02:34;;;;;;;;;;;5.80;97.70;;;4.86;100.00;98513.22;5073290;28;19956;-67
2022/01/31 07:05:02;;;;;;;;;;;5.80;98.10;;;4.98;100.00;98534.63;5073484;28;19970;-67
2022/01/31 07:07:28;;;;;;;;;;;5.80;98.30;;;5.26;100.00;98579.75;5055498;28;20365;-67
2022/01/31 07:09:54;;;;;;;;;;;5.70;98.50;;;5.37;100.00;98582.41;5073394;28;19999;-67
2022/01/31 07:12:24;;;;;;;;;;;5.70;98.70;;;5.06;100.00;98541.81;5058188;28;19920;-67
2022/01/31 07:14:49;;;;;;;;;;;5.80;98.90;;;5.36;100.00;98593.56;5060348;28;19943;-67
2022/01/31 07:17:15;;;;;;;;;;;5.80;99.10;;;5.20;100.00;98577.56;5076079;28;19921;-68
2022/01/31 07:19:42;;;;;;;;;;;5.80;99.20;;;5.32;100.00;98602.38;5076938;28;19924;-67
2022/01/31 07:22:11;;;;;;;;;;;5.80;99.20;;;5.26;100.00;98577.19;5077402;28;19921;-67
2022/01/31 07:27:03;;;;;;;;;;;5.70;99.20;;;5.24;100.00;98594.34;5077268;28;19927;-67
2022/01/31 07:29:29;;;;;;;;;;;5.70;99.40;;;5.20;100.00;98593.72;5076593;28;19931;-66
2022/01/31 07:31:58;;;;;;;;;;;5.70;99.50;;;5.25;100.00;98583.22;5059329;28;19920;-67
2022/01/31 07:34:24;;;;;;;;;;;5.70;99.30;;;4.83;100.00;98507.50;5059024;28;19916;-67
2022/01/31 07:36:51;;;;;;;;;;;5.70;99.40;;;5.29;100.00;98587.19;5059323;28;20293;-67
2022/01/31 07:39:17;;;;;;;;;;;5.70;99.50;;;5.17;100.00;98599.03;5058681;28;19920;-68
2022/01/31 07:41:43;;;;;;;;;;;5.70;99.80;;;4.83;100.00;98526.22;5076579;28;19917;-67
2022/01/31 07:44:10;;;;;;;;;;;5.70;99.90;;;5.29;100.00;98584.66;5076976;28;20393;-69
2022/01/31 07:46:35;;;;;;;;;;;5.70;99.90;;;5.17;100.00;98585.44;5076495;28;19967;-67
2022/01/31 07:49:02;;;;;;;;;;;5.70;99.90;;;5.19;100.00;98576.72;5076797;28;19968;-67
2022/01/31 07:51:27;;;;;;;;;;;5.70;99.90;;;5.24;100.00;98595.19;5058513;28;20479;-67
2022/01/31 07:53:53;;;;;;;;;;;5.60;99.90;;;5.27;100.00;98599.28;5076667;28;19932;-67
2022/01/31 07:56:20;;;;;;;;;;;5.70;99.90;;;5.29;100.00;98585.47;5076601;28;19973;-67
2022/01/31 07:58:46;;;;;;;;;;;5.70;99.90;;;5.03;100.00;98544.56;5076165;28;20430;-67
2022/01/31 08:01:12;;;;;;;;;;;5.70;99.90;;;5.20;100.00;98577.56;5042063;28;19920;-67
2022/01/31 08:03:38;;;;;;;;;;;5.70;99.90;;;5.32;100.00;98618.53;5076192;28;19920;-67
2022/01/31 08:06:03;;;;;;;;;;;5.70;99.90;;;5.32;100.00;98622.81;5076429;28;19956;-64
2022/01/31 08:08:30;;;;;;;;;;;5.70;99.90;;;5.32;100.00;98622.81;5076250;28;19921;-66
2022/01/31 08:10:56;;;;;;;;;;;5.70;99.90;;;5.42;100.00;98623.91;5058390;28;20357;-67
2022/01/31 08:13:24;;;;;;;;;;;5.80;99.90;;;5.05;100.00;98579.34;5058459;28;19969;-65
2022/01/31 08:16:09;;;;;;;;;;;5.80;99.90;;;5.28;100.00;98636.72;5076412;28;19924;-67
2022/01/31 08:18:39;;;;;;;;;;;5.70;99.90;;;5.36;100.00;98627.63;5060563;28;20285;-68
2022/01/31 08:21:06;;;;;;;;;;;5.80;99.90;;;5.35;100.00;98625.19;5058377;28;19921;-68
2022/01/31 08:23:32;;;;;;;;;;;5.80;99.90;;;5.41;100.00;98612.00;5074850;28;19921;-68
2022/01/31 08:26:00;;;;;;;;;;;5.80;99.90;;;4.95;100.00;98542.50;5058317;28;19948;-68
2022/01/31 08:28:34;;;;;;;;;;;5.80;99.80;;;5.31;100.00;98595.59;5075946;28;19921;-68
2022/01/31 08:31:12;;;;;;;;;;;5.80;99.80;;;5.44;100.00;98608.44;5059064;28;20278;-66
2022/01/31 08:33:43;;;;;;;;;;;5.80;99.70;;;5.37;100.00;98608.00;5075630;28;19924;-67
2022/01/31 08:36:09;;;;;;;;;;;5.80;99.60;;;5.40;100.00;98624.91;5075979;28;20396;-66
2022/01/31 08:38:36;;;;;;;;;;;5.80;99.70;;;5.32;100.00;98612.59;5076193;28;19916;-66
2022/01/31 08:41:01;;;;;;;;;;;5.80;99.90;;;5.06;100.00;98564.81;5075748;28;20034;-67
2022/01/31 08:43:27;;;;;;;;;;;5.80;99.90;;;5.45;100.00;98602.41;5075306;28;20370;-65
2022/01/31 08:45:56;;;;;;;;;;;5.80;99.90;;;5.53;100.00;98606.09;5057722;28;20393;-67
2022/01/31 08:48:25;;;;;;;;;;;5.90;99.90;;;5.51;100.00;98596.91;5058194;28;20019;-67
2022/01/31 08:50:51;;;;;;;;;;;5.90;99.90;;;5.56;100.00;98590.56;5057779;28;19920;-68
2022/01/31 08:53:17;;;;;;;;;;;5.90;99.80;;;5.65;100.00;98584.84;5075578;28;19974;-69
2022/01/31 08:55:48;;;;;;;;;;;6.00;99.90;;;5.44;100.00;98540.19;5075270;28;19921;-64
2022/01/31 08:58:15;;;;;;;;;;;6.00;99.80;;;6.07;100.00;98591.50;5058306;28;19916;-64
2022/01/31 09:00:41;;;;;;;;;;;6.20;99.90;;;6.94;100.00;98572.69;5074792;28;20409;-66
2022/01/31 09:05:36;;;;;;;;;;;7.30;99.70;;;8.32;100.00;98577.94;5075092;28;19916;-65
2022/01/31 09:08:01;;;;;;;;;;;8.10;98.50;;;9.02;100.00;98569.91;5074952;28;19924;-66
2022/01/31 09:10:27;;;;;;;;;;;8.70;96.20;;;9.56;100.00;98556.13;5075139;28;20377;-66
2022/01/31 09:12:53;;;;;;;;;;;9.60;94.40;;;9.19;100.00;98555.72;5075160;28;19927;-67
2022/01/31 09:15:18;;;;;;;;;;;10.00;91.20;;;8.31;100.00;98524.09;5075154;28;19920;-65
2022/01/31 09:17:44;;;;;;;;;;;;;;;8.48;100.00;98575.03;5057062;28;19991;-65
2022/01/31 09:20:10;;;;;;;;;;;9.60;90.10;;;8.15;100.00;98575.81;5056992;28;20374;-64
2022/01/31 09:22:36;;;;;;;;;;;9.30;90.10;;;7.79;100.00;98555.44;5074780;28;19928;-66
2022/01/31 09:25:02;;;;;;;;;;;9.00;90.60;;;7.94;100.00;98570.50;5074926;28;19921;-65
2022/01/31 09:27:28;;;;;;;;;;;8.80;91.30;;;8.10;100.00;98569.34;5057180;28;19921;-64
2022/01/31 09:29:54;;;;;;;;;;;8.60;91.80;;;8.12;100.00;98573.47;5074753;28;19977;-66
2022/01/31 09:32:23;;;;;;;;;;;8.60;91.30;;;8.61;100.00;98562.88;5057160;28;20011;-65
2022/01/31 09:34:52;;;;;;;;;;;8.80;91.90;;;8.66;100.00;98553.03;5056921;28;20019;-66
2022/01/31 09:37:21;;;;;;;;;;;9.20;91.60;;;8.37;100.00;98546.75;5057273;28;19920;-66
2022/01/31 09:39:49;;;;;;;;;;;9.20;90.80;;;8.06;100.00;98571.34;5039673;28;20141;-67
2022/01/31 09:42:24;;;;;;;;;;;9.00;90.30;;;7.57;100.00;98540.78;5074623;28;20385;-65
2022/01/31 09:45:05;;;;;;;;;;;8.60;90.40;;;7.40;100.00;98554.84;5057726;28;19921;-67
2022/01/31 09:50:20;;;;;;;;;;;8.00;91.40;;;7.05;100.00;98579.63;5036524;28;19921;-67
2022/01/31 09:52:46;;;;;;;;;;;7.80;92.40;;;6.83;100.00;98577.78;5073866;28;19974;-67
2022/01/31 09:55:12;;;;;;;;;;;7.60;92.60;;;6.83;100.00;98575.22;5056247;28;19931;-67
2022/01/31 09:57:37;;;;;;;;;;;7.40;92.90;;;6.53;100.00;98528.63;5074043;28;19921;-65
2022/01/31 10:00:04;;;;;;;;;;;7.40;93.70;;;6.85;100.00;98571.59;5074525;28;19927;-66
2022/01/31 10:02:30;;;;;;;;;;;7.30;94.00;;;6.73;100.00;98548.56;5056124;28;19920;-66
2022/01/31 10:04:56;;;;;;;;;;;7.30;94.30;;;6.90;100.00;98567.91;5073872;28;19974;-65
2022/01/31 10:07:21;;;;;;;;;;;7.30;94.20;;;6.96;100.00;98565.72;5073256;28;19924;-65
2022/01/31 10:09:48;;;;;;;;;;;7.40;94.10;;;6.70;100.00;98515.44;5073878;28;20392;-65
2022/01/31 10:16:25;;;;;;;;;;;7.40;93.60;;;6.53;100.00;98472.25;5073905;28;20019;-66
2022/01/31 10:18:01;;;;;;;;;;;7.50;93.90;;;7.03;100.00;98566.09;5073928;28;20016;-66
2022/01/31 10:20:29;;;;;;;;;;;7.50;93.80;;;6.97;100.00;98541.72;5073900;28;19924;-66
2022/01/31 10:22:55;;;;;;;;;;;7.40;93.80;;;6.96;100.00;98541.81;5073612;28;20003;-66
2022/01/31 10:25:21;;;;;;;;;;;7.40;93.60;;;6.87;100.00;98550.97;5073912;28;19974;-66
2022/01/31 10:27:49;;;;;;;;;;;7.40;93.80;;;6.82;100.00;98541.06;5056033;28;19920;-65
2022/01/31 10:30:17;;;;;;;;;;;7.40;93.80;;;6.33;100.00;98477.03;5055707;28;19928;-66
2022/01/31 10:32:47;;;;;;;;;;;7.30;93.90;;;6.56;100.00;98500.22;5056022;28;20031;-64
2022/01/31 10:35:18;;;;;;;;;;;7.30;94.20;;;6.80;100.00;98542.91;5039914;28;19917;-66
2022/01/31 10:37:44;;;;;;;;;;;7.30;94.10;;;6.75;100.00;98537.25;5055261;28;19947;-64
2022/01/31 10:53:43;;;;;;;;;;;7.30;95.20;;;7.00;100.00;98520.19;5073370;28;19923;-65
2022/01/31 10:56:10;;;;;;;;;;;7.30;95.30;;;6.71;100.00;98488.91;5073477;28;19916;-64
2022/01/31 10:58:55;;;;;;;;;;;7.40;95.20;;;6.61;100.00;98468.22;5073095;28;19960;-65
2022/01/31 11:01:21;;;;;;;;;;;7.30;95.20;;;7.03;100.00;98505.38;5056296;28;19936;-66
2022/01/31 11:03:47;;;;;;;;;;;7.40;95.20;;;6.73;100.00;98469.94;5073624;28;19920;-66
2022/01/31 11:06:13;;;;;;;;;;;7.40;95.00;;;7.14;100.00;98495.16;5073411;28;19942;-64
2022/01/31 11:08:39;;;;;;;;;;;7.50;94.70;;;7.14;100.00;98514.88;5072924;28;19921;-64
2022/01/31 11:11:05;;;;;;;;;;;7.50;94.70;;;7.25;100.00;98518.28;5055441;28;19938;-64
2022/01/31 11:13:31;;;;;;;;;;;7.50;94.40;;;7.05;100.00;98459.91;5055538;28;20433;-64
2022/01/31 11:15:57;;;;;;;;;;;7.60;94.30;;;7.12;100.00;98478.25;5055252;28;19952;-64
2022/01/31 11:18:23;;;;;;;;;;;7.70;93.90;;;7.32;100.00;98510.16;5073369;28;19921;-64
2022/01/31 11:20:53;;;;;;;;;;;7.70;93.40;;;7.18;100.00;98486.31;5055291;28;20011;-64
2022/01/31 11:23:19;;;;;;;;;;;7.70;92.90;;;7.27;100.00;98507.91;5073182;28;20370;-63
2022/01/31 11:25:44;;;;;;;;;;;7.70;92.90;;;7.11;100.00;98495.38;5038614;28;19917;-65
2022/01/31 11:28:11;;;;;;;;;;;7.60;93.50;;;6.98;100.00;98512.59;5038525;28;19923;-64
2022/01/31 11:30:36;;;;;;;;;;;7.50;93.50;;;7.02;100.00;98497.78;5038302;28;19924;-64
2022/01/31 11:33:02;;;;;;;;;;;7.40;94.20;;;6.83;100.00;98523.94;5055346;28;20345;-65
2022/01/31 11:35:28;;;;;;;;;;;7.30;93.70;;;6.75;100.00;98511.63;5073161;28;19920;-65
2022/01/31 11:37:53;;;;;;;;;;;7.30;93.50;;;6.86;100.00;98504.00;5054978;28;19920;-65
2022/01/31 11:40:19;;;;;;;;;;;7.20;93.80;;;6.86;100.00;98521.13;5055068;28;19928;-64
2022/01/31 11:42:46;;;;;;;;;;;7.30;94.00;;;6.80;100.00;98509.56;5038256;28;19923;-65
2022/01/31 11:45:15;;;;;;;;;;;7.30;94.00;;;6.81;100.00;98493.28;5055022;28;19931;-65
2022/01/31 11:47:41;;;;;;;;;;;7.30;94.60;;;6.54;100.00;98476.44;5054955;28;19917;-64
2022/01/31 11:50:08;;;;;;;;;;;7.20;94.50;;;6.92;100.00;98507.88;5038705;28;20289;-65